createdAt,value
2019-01-25T00:00:58.898Z,86.20
2019-01-25T00:01:58.913Z,87.04
2019-01-25T00:02:58.868Z,85.99
2019-01-25T00:03:58.857Z,86.72
2019-01-25T00:04:58.847Z,86.10
2019-01-25T00:05:58.836Z,86.52
2019-01-25T00:06:58.831Z,87.19
2019-01-25T00:07:58.828Z,87.25
2019-01-25T00:08:58.804Z,87.46
2019-01-25T00:09:58.959Z,87.78
2019-01-25T00:10:58.785Z,86.20
2019-01-25T00:11:58.784Z,86.10
2019-01-25T00:12:58.771Z,86.52
2019-01-25T00:13:58.750Z,86.72
2019-01-25T00:14:58.738Z,86.62
2019-01-25T00:15:58.728Z,86.41
2019-01-25T00:16:58.772Z,86.13
2019-01-25T00:17:58.708Z,85.99
2019-01-25T00:18:58.704Z,86.41
2019-01-25T00:19:58.711Z,86.10
2019-01-25T00:20:58.676Z,86.83
2019-01-25T00:21:58.687Z,86.52
2019-01-25T00:22:58.661Z,86.62
2019-01-25T00:23:58.655Z,86.62
2019-01-25T00:24:58.707Z,86.52
2019-01-25T00:25:58.621Z,86.13
2019-01-25T00:26:58.609Z,86.13
2019-01-25T00:27:58.613Z,86.13
2019-01-25T00:28:58.589Z,87.61
2019-01-25T00:29:58.577Z,87.08
2019-01-25T00:30:58.575Z,86.80
2019-01-25T00:31:58.557Z,87.76
2019-01-25T00:32:58.557Z,86.98
2019-01-25T00:33:58.534Z,87.61
2019-01-25T00:34:58.522Z,87.44
2019-01-25T00:35:58.515Z,88.07
2019-01-25T00:36:58.514Z,87.96
2019-01-25T00:37:58.513Z,87.76
2019-01-25T00:38:58.480Z,87.02
2019-01-25T00:39:58.470Z,87.65
2019-01-25T00:40:58.461Z,86.77
2019-01-25T00:41:58.449Z,86.45
2019-01-25T00:42:58.449Z,86.13
2019-01-25T00:43:58.439Z,86.03
2019-01-25T00:44:58.416Z,86.13
2019-01-25T00:45:58.405Z,86.66
2019-01-25T00:46:58.394Z,86.34
2019-01-25T00:47:58.422Z,86.13
2019-01-25T00:48:58.379Z,86.45
2019-01-25T00:49:58.362Z,86.55
2019-01-25T00:50:58.353Z,86.77
2019-01-25T00:51:58.341Z,86.13
2019-01-25T00:52:58.330Z,86.55
2019-01-25T00:53:58.333Z,87.44
2019-01-25T00:54:58.328Z,88.18
2019-01-25T00:55:58.298Z,87.82
2019-01-25T00:56:58.287Z,88.13
2019-01-25T00:57:58.275Z,87.61
2019-01-25T00:58:58.266Z,87.29
2019-01-25T00:59:58.288Z,87.61
2019-01-25T01:00:58.252Z,86.66
2019-01-25T01:01:58.233Z,86.45
2019-01-25T01:02:58.222Z,86.34
2019-01-25T01:03:58.213Z,86.03
2019-01-25T01:04:58.203Z,86.24
2019-01-25T01:05:58.206Z,85.88
2019-01-25T01:06:58.187Z,86.87
2019-01-25T01:07:58.183Z,85.88
2019-01-25T01:08:58.159Z,86.03
2019-01-25T01:09:58.149Z,86.72
2019-01-25T01:10:58.138Z,86.52
2019-01-25T01:11:58.125Z,86.83
2019-01-25T01:12:58.121Z,86.20
2019-01-25T01:13:58.118Z,86.30
2019-01-25T01:14:58.093Z,86.41
2019-01-25T01:15:58.082Z,86.52
2019-01-25T01:16:58.071Z,86.41
2019-01-25T01:17:58.061Z,86.52
2019-01-25T01:18:58.081Z,86.20
2019-01-25T01:19:58.040Z,86.83
2019-01-25T01:20:58.028Z,86.62
2019-01-25T01:21:58.019Z,86.30
2019-01-25T01:22:58.007Z,86.10
2019-01-25T01:23:57.997Z,86.52
2019-01-25T01:24:58.033Z,86.30
2019-01-25T01:25:57.976Z,85.78
2019-01-25T01:26:57.965Z,85.67
2019-01-25T01:27:57.954Z,85.78
2019-01-25T01:28:57.943Z,86.30
2019-01-25T01:29:57.932Z,85.88
2019-01-25T01:30:57.968Z,86.37
2019-01-25T01:31:57.914Z,86.94
2019-01-25T01:32:57.899Z,86.10
2019-01-25T01:33:57.889Z,86.94
2019-01-25T01:34:57.877Z,85.92
2019-01-25T01:35:57.869Z,85.67
2019-01-25T01:36:57.876Z,86.62
2019-01-25T01:37:57.847Z,86.77
2019-01-25T01:38:57.835Z,85.78
2019-01-25T01:39:57.824Z,85.99
2019-01-25T01:40:57.835Z,85.78
2019-01-25T01:41:57.802Z,86.62
2019-01-25T01:42:57.801Z,86.30
2019-01-25T01:43:57.780Z,86.72
2019-01-25T01:44:57.772Z,85.67
2019-01-25T01:45:57.760Z,86.30
2019-01-25T01:46:57.762Z,87.15
2019-01-25T01:47:57.738Z,86.10
2019-01-25T01:48:57.730Z,86.62
2019-01-25T01:49:57.715Z,85.78
2019-01-25T01:50:57.708Z,85.88
2019-01-25T01:51:57.709Z,86.13
2019-01-25T01:52:57.683Z,85.50
2019-01-25T01:53:57.677Z,85.67
2019-01-25T01:54:57.668Z,85.78
2019-01-25T01:55:57.654Z,85.82
2019-01-25T01:56:57.656Z,85.61
2019-01-25T01:57:57.631Z,85.57
2019-01-25T01:58:57.620Z,85.71
2019-01-25T01:59:57.608Z,85.67
2019-01-25T02:00:57.608Z,87.15
2019-01-25T02:01:57.603Z,86.55
2019-01-25T02:02:57.576Z,85.67
2019-01-25T02:03:57.563Z,86.62
2019-01-25T02:04:57.555Z,86.62
2019-01-25T02:05:57.545Z,86.03
2019-01-25T02:06:57.575Z,86.83
2019-01-25T02:07:57.522Z,86.30
2019-01-25T02:08:57.512Z,86.83
2019-01-25T02:09:57.504Z,85.25
2019-01-25T02:10:57.492Z,85.57
2019-01-25T02:11:57.481Z,86.52
2019-01-25T02:12:57.514Z,86.62
2019-01-25T02:13:57.457Z,86.30
2019-01-25T02:14:57.452Z,85.71
2019-01-25T02:15:57.435Z,86.03
2019-01-25T02:16:57.426Z,85.50
2019-01-25T02:17:57.415Z,85.82
2019-01-25T02:18:57.449Z,85.29
2019-01-25T02:19:57.395Z,84.87
2019-01-25T02:20:57.385Z,85.29
2019-01-25T02:21:57.371Z,85.50
2019-01-25T02:22:57.361Z,85.92
2019-01-25T02:23:57.350Z,85.57
2019-01-25T02:24:57.359Z,85.92
2019-01-25T02:25:57.330Z,86.66
2019-01-25T02:26:57.316Z,85.88
2019-01-25T02:27:57.311Z,85.88
2019-01-25T02:28:57.297Z,86.13
2019-01-25T02:29:57.302Z,86.13
2019-01-25T02:30:57.282Z,85.92
2019-01-25T02:31:57.265Z,85.88
2019-01-25T02:32:57.255Z,86.62
2019-01-25T02:33:57.243Z,86.72
2019-01-25T02:34:57.243Z,86.83
2019-01-25T02:35:57.221Z,87.15
2019-01-25T02:36:57.221Z,85.92
2019-01-25T02:37:57.197Z,86.41
2019-01-25T02:38:57.189Z,86.20
2019-01-25T02:39:57.190Z,86.72
2019-01-25T02:40:57.168Z,86.94
2019-01-25T02:41:57.156Z,86.10
2019-01-25T02:42:57.159Z,85.88
2019-01-25T02:43:57.148Z,85.57
2019-01-25T02:44:57.138Z,85.67
2019-01-25T02:45:57.111Z,85.67
2019-01-25T02:46:57.104Z,85.67
2019-01-25T02:47:57.113Z,85.25
2019-01-25T02:48:57.091Z,85.78
2019-01-25T02:49:57.103Z,85.18
2019-01-25T02:50:57.061Z,85.57
2019-01-25T02:51:57.048Z,85.25
2019-01-25T02:53:03.777Z,85.25
2019-01-25T02:53:58.027Z,85.57
2019-01-25T02:54:57.024Z,85.78
2019-01-25T02:55:57.021Z,85.50
2019-01-25T02:56:56.995Z,85.46
2019-01-25T02:57:56.983Z,85.67
2019-01-25T02:58:56.973Z,86.10
2019-01-25T02:59:56.963Z,86.30
2019-01-25T03:00:56.976Z,86.20
2019-01-25T03:01:56.942Z,85.46
2019-01-25T03:02:56.930Z,84.94
2019-01-25T03:03:56.932Z,85.11
2019-01-25T03:04:56.920Z,85.42
2019-01-25T03:05:56.929Z,85.99
2019-01-25T03:06:56.895Z,85.88
2019-01-25T03:07:56.878Z,85.57
2019-01-25T03:08:56.866Z,85.46
2019-01-25T03:09:56.855Z,85.57
2019-01-25T03:10:56.844Z,86.10
2019-01-25T03:11:56.867Z,86.20
2019-01-25T03:12:56.830Z,85.99
2019-01-25T03:13:56.812Z,85.99
2019-01-25T03:14:56.800Z,86.10
2019-01-25T03:15:56.808Z,85.57
2019-01-25T03:16:56.780Z,85.36
2019-01-25T03:17:56.788Z,85.46
2019-01-25T03:18:56.767Z,85.46
2019-01-25T03:19:56.771Z,85.36
2019-01-25T03:20:56.742Z,85.46
2019-01-25T03:21:56.727Z,85.67
2019-01-25T03:22:56.720Z,85.57
2019-01-25T03:23:56.705Z,86.10
2019-01-25T03:24:56.696Z,85.99
2019-01-25T03:25:56.713Z,85.67
2019-01-25T03:26:56.674Z,85.46
2019-01-25T03:27:56.661Z,85.25
2019-01-25T03:28:56.650Z,85.46
2019-01-25T03:29:56.629Z,84.94
2019-01-25T03:30:56.640Z,85.88
2019-01-25T03:31:56.609Z,85.78
2019-01-25T03:32:56.657Z,85.57
2019-01-25T03:33:56.610Z,84.72
2019-01-25T03:34:56.585Z,85.46
2019-01-25T03:35:56.565Z,85.46
2019-01-25T03:36:56.567Z,85.67
2019-01-25T03:37:56.552Z,85.78
2019-01-25T03:38:56.540Z,85.14
2019-01-25T03:39:56.550Z,85.04
2019-01-25T03:40:56.521Z,85.25
2019-01-25T03:41:56.503Z,85.57
2019-01-25T03:42:56.508Z,85.67
2019-01-25T03:43:56.478Z,86.20
2019-01-25T03:44:56.501Z,86.62
2019-01-25T03:45:56.466Z,85.78
2019-01-25T03:46:56.456Z,85.99
2019-01-25T03:47:56.452Z,85.95
2019-01-25T03:48:56.438Z,86.52
2019-01-25T03:49:56.441Z,86.10
2019-01-25T03:50:56.442Z,86.62
2019-01-25T03:51:56.410Z,86.20
2019-01-25T03:52:56.397Z,86.30
2019-01-25T03:53:56.380Z,86.62
2019-01-25T03:54:56.367Z,85.78
2019-01-25T03:55:56.364Z,86.69
2019-01-25T03:56:56.382Z,86.72
2019-01-25T03:57:56.357Z,85.99
2019-01-25T03:58:56.353Z,85.99
2019-01-25T03:59:56.317Z,86.83
2019-01-25T04:00:56.321Z,85.88
2019-01-25T04:01:56.327Z,86.52
2019-01-25T04:02:56.351Z,86.94
2019-01-25T04:03:56.271Z,87.57
2019-01-25T04:04:56.256Z,87.36
2019-01-25T04:05:56.253Z,86.62
2019-01-25T04:06:56.235Z,86.52
2019-01-25T04:07:56.284Z,86.62
2019-01-25T04:08:56.216Z,86.69
2019-01-25T04:09:56.201Z,86.94
2019-01-25T04:11:03.466Z,86.72
2019-01-25T04:11:57.189Z,87.42
2019-01-25T04:12:56.166Z,87.36
2019-01-25T04:13:56.166Z,87.25
2019-01-25T04:14:56.160Z,87.36
2019-01-25T04:15:56.145Z,87.04
2019-01-25T04:16:56.154Z,87.53
2019-01-25T04:17:56.126Z,87.46
2019-01-25T04:18:56.120Z,87.04
2019-01-25T04:19:56.109Z,87.00
2019-01-25T04:20:56.098Z,87.46
2019-01-25T04:21:56.081Z,86.41
2019-01-25T04:22:56.069Z,86.20
2019-01-25T04:23:56.072Z,86.10
2019-01-25T04:24:56.040Z,86.27
2019-01-25T04:25:56.032Z,87.32
2019-01-25T04:26:56.034Z,87.46
2019-01-25T04:27:56.018Z,87.00
2019-01-25T04:28:56.017Z,87.78
2019-01-25T04:29:55.994Z,87.63
2019-01-25T04:30:55.990Z,87.25
2019-01-25T04:31:56.009Z,87.74
2019-01-25T04:32:55.969Z,87.42
2019-01-25T04:33:55.958Z,86.58
2019-01-25T04:34:55.948Z,86.27
2019-01-25T04:35:55.960Z,86.41
2019-01-25T04:36:55.909Z,86.20
2019-01-25T04:37:55.922Z,86.47
2019-01-25T04:38:55.914Z,86.62
2019-01-25T04:39:55.898Z,86.72
2019-01-25T04:40:55.874Z,86.10
2019-01-25T04:41:55.873Z,86.10
2019-01-25T04:42:55.864Z,86.05
2019-01-25T04:43:55.837Z,85.99
2019-01-25T04:44:55.834Z,85.99
2019-01-25T04:45:55.812Z,86.30
2019-01-25T04:46:55.798Z,86.79
2019-01-25T04:47:55.828Z,86.10
2019-01-25T04:48:55.793Z,86.16
2019-01-25T04:49:55.789Z,86.20
2019-01-25T04:50:55.759Z,86.10
2019-01-25T04:51:55.743Z,86.62
2019-01-25T04:52:55.746Z,86.62
2019-01-25T04:53:55.753Z,86.72
2019-01-25T04:54:55.727Z,86.27
2019-01-25T04:55:55.712Z,85.78
2019-01-25T04:56:55.709Z,86.10
2019-01-25T04:57:55.707Z,86.20
2019-01-25T04:58:55.696Z,85.88
2019-01-25T04:59:55.669Z,86.41
2019-01-25T05:00:55.665Z,86.05
2019-01-25T05:01:55.647Z,86.41
2019-01-25T05:02:55.637Z,86.83
2019-01-25T05:03:55.630Z,86.10
2019-01-25T05:04:55.604Z,86.79
2019-01-25T05:05:55.607Z,86.52
2019-01-25T05:06:55.583Z,86.62
2019-01-25T05:07:55.580Z,87.53
2019-01-25T05:08:55.566Z,87.32
2019-01-25T05:09:55.552Z,86.83
2019-01-25T05:10:55.575Z,86.69
2019-01-25T05:11:55.533Z,86.10
2019-01-25T05:12:55.521Z,86.58
2019-01-25T05:13:55.542Z,87.36
2019-01-25T05:14:55.503Z,87.46
2019-01-25T05:15:55.508Z,86.94
2019-01-25T05:16:55.496Z,87.15
2019-01-25T05:17:55.472Z,86.72
2019-01-25T05:18:55.455Z,86.79
2019-01-25T05:19:55.457Z,85.88
2019-01-25T05:20:55.460Z,86.10
2019-01-25T05:21:55.478Z,86.69
2019-01-25T05:22:55.423Z,87.46
2019-01-25T05:23:55.428Z,86.69
2019-01-25T05:24:55.393Z,87.57
2019-01-25T05:25:55.382Z,86.94
2019-01-25T05:26:55.378Z,86.52
2019-01-25T05:27:55.423Z,87.68
2019-01-25T05:28:55.363Z,87.04
2019-01-25T05:29:55.337Z,87.21
2019-01-25T05:30:55.341Z,86.20
2019-01-25T05:31:55.340Z,85.88
2019-01-25T05:32:55.330Z,85.78
2019-01-25T05:33:55.319Z,86.20
2019-01-25T05:34:55.295Z,87.36
2019-01-25T05:35:55.297Z,86.37
2019-01-25T05:36:55.263Z,86.37
2019-01-25T05:37:55.250Z,86.41
2019-01-25T05:38:55.258Z,86.94
2019-01-25T05:39:55.250Z,86.20
2019-01-25T05:40:55.233Z,86.94
2019-01-25T05:41:55.205Z,87.04
2019-01-25T05:42:55.215Z,87.78
2019-01-25T05:43:55.232Z,86.79
2019-01-25T05:44:55.172Z,87.78
2019-01-25T05:45:55.205Z,86.90
2019-01-25T05:46:55.153Z,86.62
2019-01-25T05:47:55.157Z,87.04
2019-01-25T05:48:55.137Z,86.90
2019-01-25T05:49:55.152Z,87.68
2019-01-25T05:50:55.132Z,87.36
2019-01-25T05:51:55.116Z,86.79
2019-01-25T05:52:55.091Z,87.74
2019-01-25T05:53:55.078Z,87.78
2019-01-25T05:54:55.078Z,86.94
2019-01-25T05:55:55.070Z,87.78
2019-01-25T05:56:55.053Z,87.53
2019-01-25T05:57:55.044Z,87.68
2019-01-25T05:58:55.021Z,87.46
2019-01-25T05:59:55.026Z,86.30
2019-01-25T06:00:55.016Z,86.72
2019-01-25T06:01:55.006Z,86.16
2019-01-25T06:02:54.979Z,87.36
2019-01-25T06:03:54.969Z,87.68
2019-01-25T06:04:54.961Z,87.04
2019-01-25T06:05:54.953Z,86.79
2019-01-25T06:06:54.953Z,87.36
2019-01-25T06:07:54.927Z,87.32
2019-01-25T06:08:54.929Z,87.42
2019-01-25T06:09:54.904Z,86.79
2019-01-25T06:10:54.896Z,87.21
2019-01-25T06:11:54.915Z,87.99
2019-01-25T06:12:54.883Z,87.42
2019-01-25T06:13:54.860Z,87.57
2019-01-25T06:14:54.874Z,87.63
2019-01-25T06:15:54.839Z,87.36
2019-01-25T06:16:54.847Z,87.95
2019-01-25T06:17:54.825Z,87.99
2019-01-25T06:18:54.808Z,88.10
2019-01-25T06:19:54.819Z,87.68
2019-01-25T06:20:54.804Z,87.88
2019-01-25T06:21:54.776Z,87.88
2019-01-25T06:22:54.768Z,87.46
2019-01-25T06:23:54.756Z,87.68
2019-01-25T06:24:54.794Z,88.20
2019-01-25T06:25:54.730Z,88.52
2019-01-25T06:26:54.726Z,88.31
2019-01-25T06:27:54.722Z,89.04
2019-01-25T06:28:54.708Z,88.94
2019-01-25T06:29:54.687Z,88.31
2019-01-25T06:30:54.717Z,87.74
2019-01-25T06:31:54.675Z,87.68
2019-01-25T06:32:54.669Z,88.10
2019-01-25T06:33:54.644Z,88.10
2019-01-25T06:34:54.676Z,87.57
2019-01-25T06:35:54.632Z,88.06
2019-01-25T06:36:54.615Z,87.78
2019-01-25T06:37:54.637Z,88.10
2019-01-25T06:38:54.592Z,88.41
2019-01-25T06:39:54.585Z,88.27
2019-01-25T06:40:54.568Z,88.06
2019-01-25T06:41:54.559Z,88.20
2019-01-25T06:42:54.585Z,88.37
2019-01-25T06:43:54.545Z,88.73
2019-01-25T06:44:54.531Z,88.69
2019-01-25T06:45:54.519Z,88.62
2019-01-25T06:46:54.514Z,88.79
2019-01-25T06:47:54.493Z,88.73
2019-01-25T06:48:54.508Z,88.10
2019-01-25T06:49:54.499Z,88.41
2019-01-25T06:50:54.461Z,88.06
2019-01-25T06:51:54.458Z,87.78
2019-01-25T06:52:54.476Z,87.78
2019-01-25T06:53:54.434Z,87.95
2019-01-25T06:54:54.430Z,87.63
2019-01-25T06:55:54.437Z,87.85
2019-01-25T06:56:54.398Z,87.88
2019-01-25T06:57:54.385Z,87.74
2019-01-25T06:58:54.375Z,87.88
2019-01-25T06:59:54.403Z,88.52
2019-01-25T07:00:54.355Z,88.52
2019-01-25T07:01:54.349Z,88.20
2019-01-25T07:02:54.330Z,88.62
2019-01-25T07:03:54.371Z,88.20
2019-01-25T07:04:54.320Z,88.83
2019-01-25T07:05:54.316Z,88.41
2019-01-25T07:06:54.307Z,88.83
2019-01-25T07:07:54.278Z,88.20
2019-01-25T07:08:54.272Z,88.20
2019-01-25T07:09:54.297Z,88.58
2019-01-25T07:10:54.270Z,88.94
2019-01-25T07:11:54.238Z,88.94
2019-01-25T07:12:54.224Z,88.83
2019-01-25T07:13:54.226Z,89.68
2019-01-25T07:14:54.201Z,89.36
2019-01-25T07:15:54.230Z,89.68
2019-01-25T07:16:54.181Z,89.68
2019-01-25T07:17:54.183Z,89.36
2019-01-25T07:18:54.172Z,89.11
2019-01-25T07:19:54.151Z,89.64
2019-01-25T07:20:54.176Z,89.42
2019-01-25T07:21:54.127Z,89.42
2019-01-25T07:22:54.142Z,89.84
2019-01-25T07:23:54.104Z,89.53
2019-01-25T07:24:57.268Z,89.84
2019-01-25T07:25:54.112Z,89.32
2019-01-25T07:26:54.104Z,89.53
2019-01-25T07:27:54.067Z,90.37
2019-01-25T07:28:54.071Z,90.26
2019-01-25T07:29:54.065Z,89.84
2019-01-25T07:30:54.032Z,89.53
2019-01-25T07:31:54.050Z,90.26
2019-01-25T07:32:54.043Z,90.16
2019-01-25T07:33:54.006Z,89.74
2019-01-25T07:34:54.177Z,90.48
2019-01-25T07:35:53.987Z,90.69
2019-01-25T07:36:53.992Z,90.69
2019-01-25T07:37:53.967Z,90.48
2019-01-25T07:38:53.947Z,90.37
2019-01-25T07:39:53.945Z,90.44
2019-01-25T07:40:53.945Z,91.00
2019-01-25T07:41:59.168Z,90.58
2019-01-25T07:42:54.935Z,90.90
2019-01-25T07:43:54.044Z,90.48
2019-01-25T07:44:53.896Z,90.90
2019-01-25T07:45:53.875Z,90.16
2019-01-25T07:46:53.856Z,90.37
2019-01-25T07:47:53.858Z,90.80
2019-01-25T07:48:53.848Z,90.58
2019-01-25T07:49:53.825Z,90.80
2019-01-25T07:50:53.817Z,90.69
2019-01-25T07:51:53.816Z,92.16
2019-01-25T07:52:53.834Z,91.07
2019-01-25T07:53:53.833Z,91.07
2019-01-25T07:54:53.774Z,90.33
2019-01-25T07:55:53.776Z,90.97
2019-01-25T07:56:53.851Z,90.12
2019-01-25T07:57:53.737Z,89.42
2019-01-25T07:58:53.743Z,89.74
2019-01-25T07:59:53.747Z,89.42
2019-01-25T08:00:53.717Z,89.42
2019-01-25T08:01:53.701Z,89.70
2019-01-25T08:02:53.684Z,89.70
2019-01-25T08:03:53.695Z,89.53
2019-01-25T08:04:53.663Z,89.22
2019-01-25T08:05:53.661Z,89.32
2019-01-25T08:06:53.642Z,89.00
2019-01-25T08:07:53.641Z,88.90
2019-01-25T08:08:53.653Z,89.42
2019-01-25T08:09:53.617Z,89.00
2019-01-25T08:10:53.603Z,89.22
2019-01-25T08:11:53.589Z,89.64
2019-01-25T08:12:53.640Z,89.39
2019-01-25T08:13:53.580Z,89.00
2019-01-25T08:14:53.572Z,89.32
2019-01-25T08:15:53.547Z,88.12
2019-01-25T08:16:53.546Z,87.95
2019-01-25T08:17:53.532Z,88.79
2019-01-25T08:18:53.525Z,87.63
2019-01-25T08:19:53.526Z,88.16
2019-01-25T08:20:53.496Z,88.16
2019-01-25T08:21:53.487Z,87.42
2019-01-25T08:22:53.527Z,88.16
2019-01-25T08:23:53.460Z,87.21
2019-01-25T08:24:53.454Z,88.27
2019-01-25T08:25:53.457Z,88.27
2019-01-25T08:26:53.485Z,87.53
2019-01-25T08:27:53.418Z,87.21
2019-01-25T08:28:53.441Z,86.05
2019-01-25T08:29:53.461Z,86.79
2019-01-25T08:30:53.398Z,86.27
2019-01-25T08:31:53.439Z,85.95
2019-01-25T08:32:53.370Z,86.47
2019-01-25T08:33:53.367Z,86.16
2019-01-25T08:34:53.349Z,86.90
2019-01-25T08:35:53.392Z,86.90
2019-01-25T08:36:53.332Z,86.16
2019-01-25T08:37:53.304Z,86.58
2019-01-25T08:38:53.308Z,86.05
2019-01-25T08:39:53.318Z,87.42
2019-01-25T08:40:53.394Z,86.58
2019-01-25T08:41:53.283Z,87.00
2019-01-25T08:42:53.351Z,87.32
2019-01-25T08:43:53.246Z,86.27
2019-01-25T08:44:53.251Z,86.69
2019-01-25T08:45:53.266Z,86.79
2019-01-25T08:46:53.283Z,86.16
2019-01-25T08:47:53.226Z,86.47
2019-01-25T08:48:53.213Z,86.47
2019-01-25T08:49:57.797Z,86.44
2019-01-25T08:50:54.163Z,86.54
2019-01-25T08:51:53.165Z,85.95
2019-01-25T08:52:53.218Z,85.91
2019-01-25T08:53:53.206Z,85.91
2019-01-25T08:54:53.137Z,86.65
2019-01-25T08:55:53.112Z,86.54
2019-01-25T08:56:53.155Z,85.60
2019-01-25T08:57:53.158Z,85.00
2019-01-25T08:58:53.079Z,85.28
2019-01-25T08:59:53.078Z,86.02
2019-01-25T09:00:53.071Z,86.02
2019-01-25T09:01:53.077Z,85.17
2019-01-25T09:02:53.040Z,85.60
2019-01-25T09:03:53.038Z,86.47
2019-01-25T09:04:53.019Z,85.91
2019-01-25T09:05:53.004Z,87.07
2019-01-25T09:06:52.998Z,86.16
2019-01-25T09:07:53.000Z,85.38
2019-01-25T09:08:52.981Z,85.42
2019-01-25T09:09:52.962Z,84.69
2019-01-25T09:10:52.962Z,85.21
2019-01-25T09:11:52.955Z,85.63
2019-01-25T09:12:52.969Z,85.95
2019-01-25T09:13:52.917Z,86.69
2019-01-25T09:14:52.942Z,86.47
2019-01-25T09:15:52.909Z,86.05
2019-01-25T09:16:52.899Z,85.85
2019-01-25T09:17:52.875Z,86.58
2019-01-25T09:18:52.909Z,86.69
2019-01-25T09:19:52.866Z,86.16
2019-01-25T09:20:52.865Z,86.47
2019-01-25T09:21:52.832Z,86.76
2019-01-25T09:22:52.828Z,86.76
2019-01-25T09:23:52.820Z,86.22
2019-01-25T09:24:52.824Z,85.80
2019-01-25T09:25:52.789Z,86.65
2019-01-25T09:26:52.788Z,87.28
2019-01-25T09:27:52.779Z,85.60
2019-01-25T09:28:52.756Z,86.16
2019-01-25T09:29:52.758Z,86.44
2019-01-25T09:30:52.749Z,86.22
2019-01-25T09:31:52.744Z,86.58
2019-01-25T09:32:52.742Z,86.02
2019-01-25T09:33:52.706Z,86.65
2019-01-25T09:34:52.734Z,86.44
2019-01-25T09:35:52.706Z,86.69
2019-01-25T09:36:52.670Z,85.95
2019-01-25T09:37:52.662Z,86.37
2019-01-25T09:38:52.652Z,86.27
2019-01-25T09:39:52.667Z,86.47
2019-01-25T09:40:52.668Z,86.47
2019-01-25T09:41:52.616Z,86.05
2019-01-25T09:42:52.623Z,86.05
2019-01-25T09:43:52.596Z,87.63
2019-01-25T09:44:52.603Z,87.60
2019-01-25T09:45:52.619Z,86.33
2019-01-25T09:46:53.517Z,86.58
2019-01-25T09:47:52.558Z,86.58
2019-01-25T09:48:52.543Z,87.42
2019-01-25T09:49:52.536Z,87.53
2019-01-25T09:50:53.083Z,87.18
2019-01-25T09:51:52.543Z,86.96
2019-01-25T09:52:52.499Z,86.16
2019-01-25T09:53:52.546Z,85.53
2019-01-25T09:54:52.494Z,86.69
2019-01-25T09:55:52.468Z,86.90
2019-01-25T09:56:52.459Z,87.11
2019-01-25T09:57:52.466Z,85.74
2019-01-25T09:58:52.456Z,86.47
2019-01-25T09:59:52.423Z,86.05
2019-01-25T10:00:52.422Z,85.95
2019-01-25T10:01:52.412Z,85.95
2019-01-25T10:02:52.391Z,86.33
2019-01-25T10:03:52.387Z,87.28
2019-01-25T10:04:53.951Z,86.22
2019-01-25T10:05:52.365Z,86.61
2019-01-25T10:06:52.362Z,85.87
2019-01-25T10:07:52.368Z,86.08
2019-01-25T10:08:52.344Z,86.40
2019-01-25T10:09:52.369Z,86.25
2019-01-25T10:10:52.302Z,85.94
2019-01-25T10:11:52.299Z,85.10
2019-01-25T10:12:52.279Z,84.99
2019-01-25T10:13:52.268Z,85.41
2019-01-25T10:14:52.259Z,85.31
2019-01-25T10:15:52.302Z,85.55
2019-01-25T10:16:52.254Z,85.66
2019-01-25T10:17:52.254Z,86.51
2019-01-25T10:18:52.221Z,84.89
2019-01-25T10:19:52.217Z,84.78
2019-01-25T10:20:52.213Z,85.52
2019-01-25T10:21:52.219Z,85.73
2019-01-25T10:22:52.174Z,84.99
2019-01-25T10:23:52.171Z,85.13
2019-01-25T10:24:52.151Z,84.89
2019-01-25T10:25:52.143Z,85.31
2019-01-25T10:26:52.132Z,85.62
2019-01-25T10:27:52.162Z,84.89
2019-01-25T10:28:52.127Z,84.25
2019-01-25T10:29:52.096Z,85.20
2019-01-25T10:30:52.095Z,86.15
2019-01-25T10:31:52.095Z,84.99
2019-01-25T10:32:52.079Z,83.52
2019-01-25T10:33:52.074Z,84.22
2019-01-25T10:34:52.053Z,85.16
2019-01-25T10:35:52.030Z,85.48
2019-01-25T10:36:52.026Z,83.59
2019-01-25T10:37:52.013Z,83.80
2019-01-25T10:38:52.068Z,84.84
2019-01-25T10:39:51.998Z,84.22
2019-01-25T10:40:51.995Z,84.11
2019-01-25T10:41:52.017Z,83.90
2019-01-25T10:42:53.197Z,83.37
2019-01-25T10:43:51.963Z,84.36
2019-01-25T10:44:51.998Z,84.15
2019-01-25T10:45:51.934Z,85.10
2019-01-25T10:46:52.418Z,84.47
2019-01-25T10:47:51.927Z,84.05
2019-01-25T10:48:51.926Z,84.05
2019-01-25T10:49:51.906Z,84.36
2019-01-25T10:50:51.940Z,84.40
2019-01-25T10:51:51.875Z,84.29
2019-01-25T10:52:51.847Z,84.67
2019-01-25T10:53:51.849Z,85.41
2019-01-25T10:54:51.835Z,85.94
2019-01-25T10:55:51.814Z,87.13
2019-01-25T10:56:51.836Z,85.83
2019-01-25T10:57:51.814Z,85.20
2019-01-25T10:58:51.781Z,85.13
2019-01-25T10:59:51.775Z,84.61
2019-01-25T11:00:51.765Z,85.83
2019-01-25T11:01:51.759Z,86.04
2019-01-25T11:02:58.089Z,85.77
2019-01-25T11:03:52.729Z,84.99
2019-01-25T11:04:51.718Z,85.77
2019-01-25T11:05:51.722Z,84.67
2019-01-25T11:06:51.704Z,83.31
2019-01-25T11:07:51.699Z,84.71
2019-01-25T11:08:52.936Z,84.40
2019-01-25T11:09:51.676Z,84.19
2019-01-25T11:10:51.653Z,83.45
2019-01-25T11:11:51.641Z,82.61
2019-01-25T11:12:51.669Z,83.76
2019-01-25T11:13:51.672Z,83.62
2019-01-25T11:14:51.623Z,82.40
2019-01-25T11:15:51.601Z,80.93
2019-01-25T11:16:51.604Z,81.03
2019-01-25T11:17:51.598Z,81.24
2019-01-25T11:18:51.588Z,82.50
2019-01-25T11:19:51.572Z,82.40
2019-01-25T11:20:51.593Z,82.97
2019-01-25T11:21:51.532Z,82.86
2019-01-25T11:22:51.596Z,82.65
2019-01-25T11:23:51.513Z,82.75
2019-01-25T11:24:51.499Z,83.28
2019-01-25T11:25:51.495Z,84.01
2019-01-25T11:26:51.513Z,82.54
2019-01-25T11:27:51.471Z,82.75
2019-01-25T11:28:51.479Z,84.12
2019-01-25T11:29:51.463Z,83.81
2019-01-25T11:30:51.439Z,83.91
2019-01-25T11:31:51.442Z,83.87
2019-01-25T11:32:51.432Z,83.87
2019-01-25T11:33:51.408Z,81.77
2019-01-25T11:34:51.403Z,82.71
2019-01-25T11:35:51.386Z,82.92
2019-01-25T11:36:51.377Z,81.98
2019-01-25T11:37:51.391Z,80.71
2019-01-25T11:38:51.384Z,81.66
2019-01-25T11:39:51.356Z,82.29
2019-01-25T11:40:51.344Z,83.03
2019-01-25T11:41:51.321Z,81.31
2019-01-25T11:42:51.333Z,81.10
2019-01-25T11:43:51.309Z,80.79
2019-01-25T11:44:51.323Z,79.87
2019-01-25T11:45:54.325Z,78.40
2019-01-25T11:46:51.266Z,79.10
2019-01-25T11:47:51.269Z,79.56
2019-01-25T11:48:51.262Z,79.87
2019-01-25T11:49:51.277Z,79.83
2019-01-25T11:50:51.231Z,79.24
2019-01-25T11:51:51.228Z,79.52
2019-01-25T11:52:51.249Z,78.61
2019-01-25T11:53:51.194Z,79.24
2019-01-25T11:54:51.194Z,79.35
2019-01-25T11:55:51.187Z,79.45
2019-01-25T11:56:51.161Z,79.45
2019-01-25T11:57:51.190Z,79.24
2019-01-25T11:58:51.137Z,79.14
2019-01-25T11:59:51.151Z,79.28
2019-01-25T12:00:51.115Z,79.70
2019-01-25T12:01:51.110Z,79.49
2019-01-25T12:02:51.106Z,79.80
2019-01-25T12:03:51.125Z,79.38
2019-01-25T12:04:51.088Z,79.80
2019-01-25T12:05:51.065Z,77.80
2019-01-25T12:06:51.059Z,77.28
2019-01-25T12:07:51.051Z,78.26
2019-01-25T12:08:51.025Z,77.52
2019-01-25T12:09:51.025Z,77.73
2019-01-25T12:10:51.029Z,77.63
2019-01-25T12:11:51.017Z,77.59
2019-01-25T12:12:50.990Z,77.38
2019-01-25T12:13:51.030Z,76.89
2019-01-25T12:14:50.977Z,78.44
2019-01-25T12:15:51.474Z,76.43
2019-01-25T12:16:50.959Z,75.52
2019-01-25T12:17:50.945Z,77.31
2019-01-25T12:18:50.918Z,76.68
2019-01-25T12:19:50.909Z,77.20
2019-01-25T12:20:50.901Z,77.70
2019-01-25T12:21:50.903Z,77.59
2019-01-25T12:22:50.911Z,77.28
2019-01-25T12:23:50.866Z,76.65
2019-01-25T12:24:50.865Z,77.31
2019-01-25T12:25:50.840Z,77.28
2019-01-25T12:26:50.831Z,76.01
2019-01-25T12:27:50.826Z,75.70
2019-01-25T12:28:50.836Z,76.01
2019-01-25T12:29:50.823Z,75.17
2019-01-25T12:30:50.800Z,73.63
2019-01-25T12:31:50.780Z,73.63
2019-01-25T12:32:50.778Z,75.10
2019-01-25T12:33:50.761Z,76.15
2019-01-25T12:34:50.770Z,75.81
2019-01-25T12:35:50.736Z,76.12
2019-01-25T12:36:50.737Z,75.91
2019-01-25T12:37:50.723Z,76.09
2019-01-25T12:38:50.701Z,75.35
2019-01-25T12:39:50.698Z,75.70
2019-01-25T12:40:50.702Z,76.09
2019-01-25T12:41:50.684Z,75.77
2019-01-25T12:42:50.663Z,75.38
2019-01-25T12:43:50.646Z,76.43
2019-01-25T12:44:50.666Z,75.70
2019-01-25T12:45:50.639Z,75.38
2019-01-25T12:46:50.652Z,75.07
2019-01-25T12:47:50.604Z,76.33
2019-01-25T12:48:50.612Z,75.27
2019-01-25T12:49:50.611Z,76.54
2019-01-25T12:50:50.576Z,76.01
2019-01-25T12:51:50.577Z,75.70
2019-01-25T12:52:50.567Z,76.86